Terminal Aerodrome Forecast
Issued by NWS Charleston, WV

Current Version | Previous Version | Text Only | Print | Product List | Glossary Off
Versions: 1 2 3 4 5 6 7 8 9 10 11 12 13 14 15 16 17 18 19 20 21 22 23 24

000
FTUS41 KRLX 121400 AAA
TAFPKB
TAF AMD
KPKB 121456Z 1215/1312 03004KT P6SM OVC020
     FM121700 04005KT P6SM BKN025
     FM121900 03005KT P6SM SCT025 BKN035
     FM130200 00000KT P6SM BKN025
     FM130800 00000KT P6SM BKN020=

USA.gov is the U.S. government's official web portal to all federal, state and local government web resources and services.